CFG1421 GCRR-EDDL
Flight info
| Callsign | CFG1421 |
|---|---|
| Flight time | N/A |
| Altitude | 38000 |
| Route | VASTO DCT NIDEB DCT TIGGI DCT LATRU DCT LUXUT DCT ORVED DCT BARDI DCT ZMR DCT NUBLO DCT RONSI DCT DELOG DCT PEXOD DCT DIDIG DCT ARDOD DCT OBATO UM163 TSU UN858 OQQAL DCT RANUX/N0447F390 DCT VALEK DCT LUTAX DCT DIK/N0409F230 N853 ARCKY T853 NVO T857 BIKMU BIKMU1A |
| Aircraft | A20N/M-SDE2E3FGHIRWXY/LB1 |
Departure
| Time | N/A |
|---|---|
| Airport | César Manrique-Lanzarote Airport (GCRR) |
Arrival
| Time | 2026-04-30 20:02 |
|---|---|
| Airport | Düsseldorf Airport (EDDL) |
| Time | Latitude | Longitude | Altitude | Speed | Heading |
|---|---|---|---|---|---|
| 2026-04-30 17:39 | 38.72756 | -8.23912 | 38073 ft | 488 kts | 38° |
| 2026-04-30 17:42 | 38.99401 | -7.96949 | 38064 ft | 487 kts | 39° |
| 2026-04-30 17:43 | 39.12723 | -7.83366 | 38073 ft | 486 kts | 38° |
| 2026-04-30 17:44 | 39.28572 | -7.67123 | 38066 ft | 487 kts | 39° |
| 2026-04-30 17:47 | 39.52279 | -7.42640 | 38072 ft | 484 kts | 39° |
| 2026-04-30 17:48 | 39.70602 | -7.23568 | 38067 ft | 485 kts | 39° |
| 2026-04-30 17:50 | 39.91497 | -7.01651 | 38072 ft | 483 kts | 39° |
| 2026-04-30 17:52 | 40.07284 | -6.84976 | 38079 ft | 482 kts | 40° |
| 2026-04-30 17:54 | 40.30627 | -6.60124 | 38086 ft | 483 kts | 40° |
| 2026-04-30 17:56 | 40.51333 | -6.37879 | 38083 ft | 482 kts | 40° |
| 2026-04-30 17:58 | 40.68231 | -6.23391 | 38093 ft | 484 kts | 28° |
| 2026-04-30 18:00 | 40.92484 | -6.06621 | 38098 ft | 484 kts | 28° |
| 2026-04-30 18:01 | 41.07437 | -5.96175 | 38098 ft | 483 kts | 28° |
| 2026-04-30 18:02 | 41.25435 | -5.83527 | 38101 ft | 485 kts | 28° |
| 2026-04-30 18:04 | 41.43754 | -5.70568 | 38102 ft | 487 kts | 27° |
| 2026-04-30 18:06 | 41.68312 | -5.55364 | 38094 ft | 487 kts | 22° |
| 2026-04-30 18:08 | 41.90045 | -5.43058 | 38091 ft | 485 kts | 22° |
| 2026-04-30 18:10 | 42.15046 | -5.28771 | 38093 ft | 486 kts | 22° |
| 2026-04-30 18:11 | 42.36685 | -5.16303 | 38102 ft | 484 kts | 22° |
| 2026-04-30 18:13 | 42.52228 | -5.07287 | 38107 ft | 484 kts | 22° |
| 2026-04-30 18:14 | 42.67695 | -4.98264 | 38115 ft | 484 kts | 21° |
| 2026-04-30 18:15 | 42.86391 | -4.87310 | 38126 ft | 482 kts | 21° |
| 2026-04-30 18:16 | 42.98683 | -4.80059 | 38127 ft | 482 kts | 21° |
| 2026-04-30 18:17 | 43.04817 | -4.76429 | 38128 ft | 482 kts | 21° |
| 2026-04-30 18:18 | 43.14085 | -4.70929 | 38125 ft | 482 kts | 21° |
| 2026-04-30 18:18 | 43.20212 | -4.67282 | 38121 ft | 482 kts | 21° |
| 2026-04-30 18:19 | 43.26349 | -4.63621 | 38120 ft | 482 kts | 21° |
| 2026-04-30 18:19 | 43.32495 | -4.59945 | 38113 ft | 482 kts | 21° |
| 2026-04-30 18:20 | 43.38654 | -4.56254 | 38105 ft | 481 kts | 21° |
| 2026-04-30 18:20 | 43.44753 | -4.52588 | 38097 ft | 481 kts | 21° |
| 2026-04-30 18:21 | 43.50858 | -4.48916 | 38088 ft | 481 kts | 21° |
| 2026-04-30 18:21 | 43.56986 | -4.45229 | 38091 ft | 481 kts | 21° |
| 2026-04-30 18:22 | 43.63105 | -4.41535 | 38096 ft | 481 kts | 21° |
| 2026-04-30 18:22 | 43.72259 | -4.35989 | 38098 ft | 480 kts | 21° |
| 2026-04-30 18:23 | 43.78395 | -4.32258 | 38102 ft | 480 kts | 21° |
| 2026-04-30 18:23 | 43.84480 | -4.28551 | 38110 ft | 480 kts | 21° |
| 2026-04-30 18:24 | 43.93639 | -4.22957 | 38120 ft | 480 kts | 21° |
| 2026-04-30 18:25 | 43.99714 | -4.19233 | 38121 ft | 479 kts | 21° |
| 2026-04-30 18:25 | 44.08851 | -4.13620 | 38122 ft | 478 kts | 21° |
| 2026-04-30 18:26 | 44.17966 | -4.07998 | 38121 ft | 477 kts | 21° |
| 2026-04-30 18:27 | 44.27045 | -4.02380 | 38122 ft | 477 kts | 21° |
| 2026-04-30 18:28 | 44.35840 | -3.95918 | 38120 ft | 479 kts | 30° |
| 2026-04-30 18:28 | 44.44097 | -3.88022 | 38119 ft | 480 kts | 32° |
| 2026-04-30 18:29 | 44.55037 | -3.77397 | 38117 ft | 479 kts | 32° |
| 2026-04-30 18:30 | 44.65964 | -3.66775 | 38116 ft | 479 kts | 32° |
| 2026-04-30 18:31 | 44.74122 | -3.58814 | 38116 ft | 478 kts | 32° |
| 2026-04-30 18:32 | 44.82288 | -3.50816 | 38115 ft | 478 kts | 32° |
| 2026-04-30 18:33 | 44.90418 | -3.42827 | 38118 ft | 476 kts | 32° |
| 2026-04-30 18:33 | 44.98533 | -3.34824 | 38118 ft | 475 kts | 32° |
| 2026-04-30 18:34 | 45.06635 | -3.26803 | 38126 ft | 474 kts | 32° |
| 2026-04-30 18:35 | 45.12029 | -3.21448 | 38117 ft | 474 kts | 32° |
| 2026-04-30 18:35 | 45.17392 | -3.16111 | 38113 ft | 473 kts | 32° |
| 2026-04-30 18:36 | 45.25460 | -3.08053 | 38114 ft | 473 kts | 32° |
| 2026-04-30 18:37 | 45.33468 | -3.00014 | 38118 ft | 472 kts | 33° |
| 2026-04-30 18:37 | 45.38789 | -2.94543 | 38111 ft | 471 kts | 33° |
| 2026-04-30 18:38 | 45.44074 | -2.89078 | 38113 ft | 471 kts | 33° |
| 2026-04-30 18:38 | 45.49385 | -2.83579 | 38104 ft | 470 kts | 33° |
| 2026-04-30 18:39 | 45.54638 | -2.78129 | 38105 ft | 469 kts | 34° |
| 2026-04-30 18:39 | 45.59883 | -2.72673 | 38098 ft | 468 kts | 34° |
| 2026-04-30 18:40 | 45.65129 | -2.67208 | 38100 ft | 467 kts | 34° |
| 2026-04-30 18:40 | 45.70367 | -2.61735 | 38092 ft | 467 kts | 34° |
| 2026-04-30 18:41 | 45.75583 | -2.56271 | 38103 ft | 467 kts | 34° |
| 2026-04-30 18:41 | 45.80785 | -2.50810 | 38091 ft | 467 kts | 34° |
| 2026-04-30 18:42 | 45.86039 | -2.45283 | 38096 ft | 466 kts | 34° |
| 2026-04-30 18:42 | 45.93850 | -2.37032 | 38100 ft | 466 kts | 34° |
| 2026-04-30 18:45 | 46.24103 | -2.10349 | 38117 ft | 464 kts | 27° |
| 2026-04-30 18:46 | 46.29780 | -2.05930 | 38094 ft | 463 kts | 27° |
| 2026-04-30 18:46 | 46.35433 | -2.01518 | 38108 ft | 463 kts | 27° |
| 2026-04-30 18:47 | 46.41082 | -1.97095 | 38102 ft | 463 kts | 27° |
| 2026-04-30 18:47 | 46.46751 | -1.92644 | 38108 ft | 463 kts | 27° |
| 2026-04-30 18:48 | 46.52428 | -1.88178 | 38104 ft | 464 kts | 27° |
| 2026-04-30 18:48 | 46.58045 | -1.83749 | 38109 ft | 463 kts | 27° |
| 2026-04-30 18:49 | 46.63700 | -1.79280 | 38109 ft | 463 kts | 27° |
| 2026-04-30 18:49 | 46.69347 | -1.74804 | 38101 ft | 463 kts | 27° |
| 2026-04-30 18:50 | 46.75011 | -1.70306 | 38097 ft | 463 kts | 28° |
| 2026-04-30 18:50 | 46.80638 | -1.65828 | 38108 ft | 463 kts | 28° |
| 2026-04-30 18:51 | 46.86302 | -1.61308 | 38104 ft | 463 kts | 28° |
| 2026-04-30 18:51 | 46.91917 | -1.56815 | 38107 ft | 464 kts | 28° |
| 2026-04-30 18:52 | 46.97590 | -1.52266 | 38099 ft | 464 kts | 28° |
| 2026-04-30 18:52 | 47.03217 | -1.47744 | 38101 ft | 464 kts | 28° |
| 2026-04-30 18:53 | 47.08853 | -1.43200 | 38102 ft | 464 kts | 28° |
| 2026-04-30 18:53 | 47.14525 | -1.38617 | 38108 ft | 464 kts | 28° |
| 2026-04-30 18:54 | 47.20169 | -1.34046 | 38096 ft | 465 kts | 30° |
| 2026-04-30 18:54 | 47.25882 | -1.29408 | 38099 ft | 466 kts | 30° |
| 2026-04-30 18:55 | 47.31518 | -1.24820 | 38099 ft | 466 kts | 30° |
| 2026-04-30 18:55 | 47.40033 | -1.17865 | 38108 ft | 465 kts | 30° |
| 2026-04-30 18:56 | 47.48496 | -1.10929 | 38105 ft | 465 kts | 30° |
| 2026-04-30 18:57 | 47.56970 | -1.03954 | 38104 ft | 465 kts | 30° |
| 2026-04-30 18:57 | 47.62700 | -0.99223 | 38110 ft | 466 kts | 30° |
| 2026-04-30 18:58 | 47.70870 | -0.91387 | 38110 ft | 464 kts | 39° |
| 2026-04-30 18:59 | 47.77799 | -0.81456 | 38106 ft | 461 kts | 51° |
| 2026-04-30 19:00 | 47.85587 | -0.66450 | 38102 ft | 459 kts | 53° |
| 2026-04-30 19:01 | 47.93302 | -0.51352 | 38107 ft | 459 kts | 53° |
| 2026-04-30 19:02 | 47.99114 | -0.39942 | 38107 ft | 458 kts | 53° |
| 2026-04-30 19:03 | 48.06530 | -0.24518 | 38109 ft | 456 kts | 60° |
| 2026-04-30 19:04 | 48.12181 | -0.07611 | 38112 ft | 455 kts | 66° |
| 2026-04-30 19:05 | 48.17524 | 0.09537 | 38103 ft | 454 kts | 66° |
| 2026-04-30 19:06 | 48.22835 | 0.26654 | 38109 ft | 454 kts | 66° |
| 2026-04-30 19:06 | 48.26828 | 0.39601 | 38103 ft | 454 kts | 66° |
| 2026-04-30 19:07 | 48.30785 | 0.52493 | 38114 ft | 454 kts | 66° |
| 2026-04-30 19:08 | 48.36028 | 0.69675 | 38113 ft | 454 kts | 67° |
| 2026-04-30 19:09 | 48.39966 | 0.82666 | 38113 ft | 454 kts | 66° |
| 2026-04-30 19:09 | 48.42556 | 0.91250 | 38119 ft | 453 kts | 66° |
| 2026-04-30 19:10 | 48.47771 | 1.08609 | 38118 ft | 453 kts | 67° |
| 2026-04-30 19:11 | 48.51639 | 1.21570 | 38126 ft | 452 kts | 67° |
| 2026-04-30 19:12 | 48.54214 | 1.30245 | 38125 ft | 452 kts | 67° |
| 2026-04-30 19:12 | 48.56781 | 1.38918 | 38126 ft | 452 kts | 67° |
| 2026-04-30 19:13 | 48.61859 | 1.56177 | 38128 ft | 452 kts | 67° |
| 2026-04-30 19:14 | 48.64372 | 1.64862 | 38133 ft | 450 kts | 69° |
| 2026-04-30 19:14 | 48.66582 | 1.73726 | 38132 ft | 450 kts | 71° |
| 2026-04-30 19:15 | 48.68716 | 1.82561 | 38133 ft | 450 kts | 71° |
| 2026-04-30 19:15 | 48.71932 | 1.95913 | 38140 ft | 450 kts | 71° |
| 2026-04-30 19:16 | 48.74073 | 2.04837 | 38143 ft | 449 kts | 71° |
| 2026-04-30 19:17 | 48.76858 | 2.18372 | 38155 ft | 448 kts | 76° |
| 2026-04-30 19:17 | 48.79291 | 2.31932 | 38146 ft | 447 kts | 76° |
| 2026-04-30 19:18 | 48.81741 | 2.45657 | 38150 ft | 447 kts | 76° |
| 2026-04-30 19:19 | 48.83355 | 2.54761 | 38159 ft | 447 kts | 76° |
| 2026-04-30 19:19 | 48.85770 | 2.68466 | 38155 ft | 446 kts | 77° |
| 2026-04-30 19:20 | 48.87364 | 2.77534 | 38151 ft | 446 kts | 76° |
| 2026-04-30 19:21 | 48.89745 | 2.91167 | 38164 ft | 445 kts | 76° |
| 2026-04-30 19:22 | 48.92902 | 3.09445 | 38168 ft | 445 kts | 76° |
| 2026-04-30 19:23 | 48.97571 | 3.36853 | 38183 ft | 443 kts | 76° |
| 2026-04-30 19:24 | 48.99121 | 3.46052 | 38293 ft | 444 kts | 76° |
| 2026-04-30 19:24 | 48.99871 | 3.50517 | 38473 ft | 443 kts | 76° |
| 2026-04-30 19:24 | 49.01396 | 3.59635 | 38770 ft | 442 kts | 76° |
| 2026-04-30 19:25 | 49.03662 | 3.73283 | 39164 ft | 441 kts | 77° |
| 2026-04-30 19:26 | 49.06653 | 3.91443 | 39201 ft | 441 kts | 77° |
| 2026-04-30 19:27 | 49.08872 | 4.05059 | 39189 ft | 441 kts | 77° |
| 2026-04-30 19:28 | 49.11099 | 4.18849 | 39190 ft | 440 kts | 77° |
| 2026-04-30 19:29 | 49.14216 | 4.36895 | 39199 ft | 441 kts | 71° |
| 2026-04-30 19:30 | 49.18778 | 4.54242 | 39199 ft | 441 kts | 68° |
| 2026-04-30 19:31 | 49.23503 | 4.71723 | 39203 ft | 441 kts | 69° |
| 2026-04-30 19:31 | 49.27000 | 4.84774 | 39208 ft | 441 kts | 69° |
| 2026-04-30 19:32 | 49.29327 | 4.93500 | 39210 ft | 441 kts | 68° |
| 2026-04-30 19:32 | 49.31679 | 5.02346 | 39214 ft | 441 kts | 68° |
| 2026-04-30 19:33 | 49.34034 | 5.11246 | 39216 ft | 440 kts | 69° |
| 2026-04-30 19:33 | 49.36358 | 5.20061 | 39221 ft | 441 kts | 69° |
| 2026-04-30 19:34 | 49.38662 | 5.28837 | 39226 ft | 441 kts | 68° |
| 2026-04-30 19:35 | 49.42092 | 5.41958 | 39223 ft | 440 kts | 68° |
| 2026-04-30 19:35 | 49.45268 | 5.50039 | 39228 ft | 442 kts | 50° |
| 2026-04-30 19:36 | 49.49932 | 5.56428 | 39238 ft | 444 kts | 34° |
| 2026-04-30 19:36 | 49.58184 | 5.62976 | 39256 ft | 445 kts | 27° |
| 2026-04-30 19:37 | 49.63808 | 5.67190 | 39257 ft | 446 kts | 28° |
| 2026-04-30 19:37 | 49.69443 | 5.71447 | 39265 ft | 446 kts | 28° |
| 2026-04-30 19:38 | 49.74966 | 5.75641 | 39256 ft | 441 kts | 28° |
| 2026-04-30 19:38 | 49.80394 | 5.79779 | 39272 ft | 440 kts | 28° |
| 2026-04-30 19:39 | 49.85865 | 5.83961 | 38935 ft | 433 kts | 28° |
| 2026-04-30 19:39 | 49.88544 | 5.86012 | 38150 ft | 433 kts | 28° |
| 2026-04-30 19:39 | 49.91259 | 5.88097 | 37085 ft | 437 kts | 28° |
| 2026-04-30 19:40 | 49.93975 | 5.90185 | 36190 ft | 441 kts | 28° |
| 2026-04-30 19:40 | 49.96761 | 5.92327 | 35478 ft | 441 kts | 28° |
| 2026-04-30 19:40 | 49.99534 | 5.94461 | 34838 ft | 435 kts | 28° |
| 2026-04-30 19:40 | 50.02298 | 5.96589 | 33918 ft | 437 kts | 28° |
| 2026-04-30 19:41 | 50.05090 | 5.98745 | 33017 ft | 439 kts | 28° |
| 2026-04-30 19:41 | 50.07884 | 6.00905 | 31966 ft | 444 kts | 28° |
| 2026-04-30 19:41 | 50.10645 | 6.03043 | 30738 ft | 453 kts | 29° |
| 2026-04-30 19:41 | 50.13470 | 6.05237 | 29624 ft | 457 kts | 28° |
| 2026-04-30 19:42 | 50.16272 | 6.07411 | 28667 ft | 451 kts | 28° |
| 2026-04-30 19:42 | 50.19040 | 6.09560 | 27757 ft | 443 kts | 28° |
| 2026-04-30 19:42 | 50.21794 | 6.11703 | 27130 ft | 441 kts | 28° |
| 2026-04-30 19:42 | 50.24542 | 6.13845 | 26600 ft | 440 kts | 28° |
| 2026-04-30 19:43 | 50.27232 | 6.15944 | 26065 ft | 437 kts | 28° |
| 2026-04-30 19:43 | 50.29933 | 6.18054 | 25533 ft | 433 kts | 28° |
| 2026-04-30 19:43 | 50.32642 | 6.20173 | 25272 ft | 431 kts | 29° |
| 2026-04-30 19:44 | 50.37964 | 6.24348 | 23945 ft | 429 kts | 29° |
| 2026-04-30 19:44 | 50.40640 | 6.26450 | 23335 ft | 425 kts | 29° |
| 2026-04-30 19:44 | 50.43267 | 6.28516 | 22755 ft | 420 kts | 29° |
| 2026-04-30 19:44 | 50.45826 | 6.30531 | 22203 ft | 416 kts | 29° |
| 2026-04-30 19:45 | 50.48382 | 6.32553 | 21658 ft | 411 kts | 30° |
| 2026-04-30 19:45 | 50.50891 | 6.34682 | 21090 ft | 406 kts | 32° |
| 2026-04-30 19:45 | 50.53303 | 6.36855 | 20537 ft | 402 kts | 32° |
| 2026-04-30 19:45 | 50.55716 | 6.39064 | 19985 ft | 398 kts | 32° |
| 2026-04-30 19:46 | 50.58096 | 6.41254 | 19441 ft | 394 kts | 33° |
| 2026-04-30 19:46 | 50.60431 | 6.43408 | 18907 ft | 390 kts | 33° |
| 2026-04-30 19:46 | 50.62785 | 6.45583 | 18353 ft | 387 kts | 33° |
| 2026-04-30 19:46 | 50.65138 | 6.47757 | 17814 ft | 383 kts | 33° |
| 2026-04-30 19:47 | 50.67489 | 6.49934 | 17261 ft | 380 kts | 33° |
| 2026-04-30 19:47 | 50.69049 | 6.51382 | 16894 ft | 378 kts | 33° |
| 2026-04-30 19:47 | 50.72185 | 6.54293 | 16043 ft | 377 kts | 33° |
| 2026-04-30 19:47 | 50.74437 | 6.56386 | 15425 ft | 376 kts | 33° |
| 2026-04-30 19:48 | 50.76685 | 6.58476 | 14852 ft | 373 kts | 33° |
| 2026-04-30 19:48 | 50.78951 | 6.60585 | 14299 ft | 371 kts | 33° |
| 2026-04-30 19:48 | 50.81350 | 6.62570 | 13724 ft | 371 kts | 25° |
| 2026-04-30 19:48 | 50.83905 | 6.63911 | 13158 ft | 372 kts | 16° |
| 2026-04-30 19:49 | 50.86505 | 6.64645 | 12607 ft | 371 kts | 11° |
| 2026-04-30 19:49 | 50.91605 | 6.65698 | 11558 ft | 366 kts | 11° |
| 2026-04-30 19:49 | 50.94080 | 6.66207 | 11247 ft | 356 kts | 11° |
| 2026-04-30 19:50 | 50.96498 | 6.66713 | 11063 ft | 343 kts | 11° |
| 2026-04-30 19:50 | 50.98811 | 6.67203 | 10911 ft | 330 kts | 12° |
| 2026-04-30 19:50 | 51.01055 | 6.67650 | 10744 ft | 320 kts | 9° |
| 2026-04-30 19:50 | 51.03231 | 6.67824 | 10550 ft | 312 kts | 4° |
| 2026-04-30 19:51 | 51.05372 | 6.67723 | 10387 ft | 297 kts | 1° |
| 2026-04-30 19:51 | 51.07382 | 6.67557 | 10215 ft | 288 kts | 1° |
| 2026-04-30 19:51 | 51.09375 | 6.67415 | 9858 ft | 285 kts | 5° |
| 2026-04-30 19:51 | 51.11344 | 6.67696 | 9503 ft | 280 kts | 15° |
| 2026-04-30 19:52 | 51.13197 | 6.68416 | 9156 ft | 277 kts | 20° |
| 2026-04-30 19:52 | 51.15032 | 6.69262 | 8815 ft | 275 kts | 21° |
| 2026-04-30 19:52 | 51.16883 | 6.70131 | 8478 ft | 274 kts | 21° |
| 2026-04-30 19:52 | 51.18694 | 6.70974 | 8147 ft | 273 kts | 21° |
| 2026-04-30 19:53 | 51.20498 | 6.71807 | 7816 ft | 271 kts | 21° |
| 2026-04-30 19:53 | 51.22333 | 6.72568 | 7475 ft | 273 kts | 12° |
| 2026-04-30 19:53 | 51.24229 | 6.72158 | 7123 ft | 283 kts | 339° |
| 2026-04-30 19:53 | 51.25756 | 6.70207 | 6778 ft | 289 kts | 307° |
| 2026-04-30 19:54 | 51.26484 | 6.67299 | 6441 ft | 288 kts | 274° |
| 2026-04-30 19:54 | 51.26244 | 6.64197 | 6124 ft | 281 kts | 249° |
| 2026-04-30 19:54 | 51.25589 | 6.61260 | 5812 ft | 279 kts | 246° |
| 2026-04-30 19:54 | 51.24928 | 6.58380 | 5500 ft | 279 kts | 247° |
| 2026-04-30 19:55 | 51.24288 | 6.55459 | 5187 ft | 278 kts | 248° |
| 2026-04-30 19:55 | 51.23672 | 6.52532 | 4876 ft | 276 kts | 248° |
| 2026-04-30 19:55 | 51.23082 | 6.49670 | 4569 ft | 274 kts | 248° |
| 2026-04-30 19:55 | 51.22337 | 6.46930 | 4216 ft | 265 kts | 226° |
| 2026-04-30 19:56 | 51.20957 | 6.45243 | 3954 ft | 244 kts | 194° |
| 2026-04-30 19:56 | 51.19360 | 6.44876 | 3753 ft | 224 kts | 168° |
| 2026-04-30 19:56 | 51.17938 | 6.45587 | 3568 ft | 210 kts | 146° |
| 2026-04-30 19:56 | 51.16861 | 6.47083 | 3379 ft | 200 kts | 126° |
| 2026-04-30 19:57 | 51.16262 | 6.49008 | 3151 ft | 196 kts | 107° |
| 2026-04-30 19:57 | 51.16335 | 6.51141 | 3015 ft | 195 kts | 72° |
| 2026-04-30 19:57 | 51.17090 | 6.52888 | 3013 ft | 189 kts | 57° |
| 2026-04-30 19:57 | 51.17965 | 6.54434 | 3015 ft | 188 kts | 57° |
| 2026-04-30 19:58 | 51.18813 | 6.56012 | 3005 ft | 186 kts | 59° |
| 2026-04-30 19:58 | 51.19617 | 6.57622 | 2835 ft | 184 kts | 60° |
| 2026-04-30 19:58 | 51.20361 | 6.59164 | 2666 ft | 168 kts | 62° |
| 2026-04-30 19:58 | 51.21044 | 6.60605 | 2425 ft | 156 kts | 62° |
| 2026-04-30 19:59 | 51.21669 | 6.61925 | 2195 ft | 144 kts | 63° |
| 2026-04-30 19:59 | 51.22249 | 6.63151 | 1985 ft | 137 kts | 63° |
| 2026-04-30 19:59 | 51.23388 | 6.65576 | 1633 ft | 136 kts | 63° |
| 2026-04-30 20:00 | 51.23956 | 6.66773 | 1459 ft | 136 kts | 62° |
| 2026-04-30 20:00 | 51.24529 | 6.67983 | 1286 ft | 136 kts | 61° |
| 2026-04-30 20:00 | 51.25103 | 6.69186 | 1109 ft | 136 kts | 59° |
| 2026-04-30 20:00 | 51.25675 | 6.70383 | 931 ft | 136 kts | 59° |
| 2026-04-30 20:01 | 51.26819 | 6.72787 | 568 ft | 136 kts | 58° |
| 2026-04-30 20:01 | 51.27391 | 6.73994 | 382 ft | 136 kts | 57° |
| 2026-04-30 20:01 | 51.27965 | 6.75202 | 200 ft | 136 kts | 56° |
| 2026-04-30 20:02 | 51.28904 | 6.77179 | 124 ft | 68 kts | 52° |
| 2026-04-30 20:02 | 51.29024 | 6.77509 | 124 ft | 15 kts | 107° |
| 2026-04-30 20:03 | 51.28891 | 6.77618 | 124 ft | 11 kts | 228° |
| 2026-04-30 20:03 | 51.28840 | 6.77504 | 124 ft | 12 kts | 231° |
| 2026-04-30 20:03 | 51.28782 | 6.77391 | 124 ft | 13 kts | 231° |
| 2026-04-30 20:03 | 51.28727 | 6.77274 | 126 ft | 13 kts | 233° |
| 2026-04-30 20:04 | 51.28668 | 6.77149 | 124 ft | 10 kts | 233° |
| 2026-04-30 20:04 | 51.28643 | 6.77095 | 124 ft | 6 kts | 231° |
| 2026-04-30 20:04 | 51.28607 | 6.77026 | 125 ft | 8 kts | 231° |
| 2026-04-30 20:05 | 51.28518 | 6.76837 | 126 ft | 11 kts | 233° |
| 2026-04-30 20:05 | 51.28464 | 6.76726 | 125 ft | 14 kts | 232° |
| 2026-04-30 20:05 | 51.28344 | 6.76664 | 126 ft | 10 kts | 233° |
| 2026-04-30 20:06 | 51.28301 | 6.76571 | 125 ft | 10 kts | 233° |
| 2026-04-30 20:06 | 51.28252 | 6.76467 | 124 ft | 10 kts | 233° |
| 2026-04-30 20:06 | 51.28239 | 6.76439 | 124 ft | 0 kts | 233° |
| 2026-04-30 20:06 | 51.28229 | 6.76418 | 124 ft | 3 kts | 233° |
| 2026-04-30 20:07 | 51.28211 | 6.76381 | 123 ft | 2 kts | 232° |
| 2026-04-30 20:07 | 51.28209 | 6.76376 | 123 ft | 0 kts | 232° |
| 2026-04-30 20:07 | 51.28206 | 6.76371 | 123 ft | 2 kts | 231° |
| 2026-04-30 20:08 | 51.28173 | 6.76340 | 123 ft | 9 kts | 191° |
| 2026-04-30 20:08 | 51.28120 | 6.76379 | 126 ft | 7 kts | 131° |
| 2026-04-30 20:08 | 51.28084 | 6.76428 | 129 ft | 5 kts | 146° |
| 2026-04-30 20:08 | 51.28058 | 6.76450 | 130 ft | 3 kts | 176° |
| 2026-04-30 20:09 | 51.28035 | 6.76437 | 130 ft | 5 kts | 206° |
| 2026-04-30 20:09 | 51.28013 | 6.76420 | 130 ft | 1 kts | 207° |
| 2026-04-30 20:09 | 51.28011 | 6.76418 | 130 ft | 0 kts | 207° |